Time;durP1;ratioP1;P1;durP2;ratioP2;P2;SDS_P1;SDS_P2;PMS_P1;PMS_P2;Temp;Humidity;BMP_temperature;BMP_pressure;BME280_temperature;BME280_humidity;BME280_pressure;Samples;Min_cycle;Max_cycle;Signal;HPM_P1;HPM_P2
2023/05/14 00:01:15;;;;;;;;;;;12.30;99.90;;;;;;5044347;28;19967;-90
2023/05/14 00:03:41;;;;;;;;;;;12.20;99.90;;;;;;5045964;28;20449;-89
2023/05/14 00:06:08;;;;;;;;;;;12.30;99.90;;;;;;5055127;28;19972;-91
2023/05/14 00:08:33;;;;;;;;;;;12.20;99.90;;;;;;5057441;28;20024;-91
2023/05/14 00:10:59;;;;;;;;;;;12.20;99.90;;;;;;5045573;28;20032;-90
2023/05/14 00:13:25;;;;;;;;;;;12.10;99.90;;;;;;5052342;28;19925;-90
2023/05/14 00:15:50;;;;;;;;;;;12.10;99.90;;;;;;5065290;28;19932;-90
2023/05/14 00:18:16;;;;;;;;;;;12.10;99.90;;;;;;5064469;28;19939;-91
2023/05/14 00:20:42;;;;;;;;;;;12.00;99.90;;;;;;5068241;28;19935;-90
2023/05/14 00:23:07;;;;;;;;;;;11.90;99.90;;;;;;5059749;28;19978;-90
2023/05/14 00:25:33;;;;;;;;;;;11.80;99.90;;;;;;5061363;28;19925;-90
2023/05/14 00:27:59;;;;;;;;;;;11.80;99.90;;;;;;5062063;28;19924;-90
2023/05/14 00:30:24;;;;;;;;;;;11.00;99.90;;;;;;5059535;28;19924;-89
2023/05/14 00:32:50;;;;;;;;;;;11.70;99.90;;;;;;5040345;28;19932;-91
2023/05/14 00:35:16;;;;;;;;;;;11.70;99.90;;;;;;5041650;28;19929;-89
2023/05/14 00:37:41;;;;;;;;;;;11.70;99.90;;;;;;5045496;28;20011;-90
2023/05/14 00:40:07;;;;;;;;;;;11.70;99.90;;;;;;5044028;28;19932;-91
2023/05/14 00:42:33;;;;;;;;;;;11.70;99.90;;;;;;5060366;28;19936;-90
2023/05/14 00:44:59;;;;;;;;;;;11.70;99.90;;;;;;5061659;28;19924;-90
2023/05/14 00:47:25;;;;;;;;;;;11.60;99.90;;;;;;5062525;28;19925;-91
2023/05/14 00:49:51;;;;;;;;;;;11.60;99.90;;;;;;5041793;28;19935;-90
2023/05/14 00:52:17;;;;;;;;;;;11.60;99.90;;;;;;5045875;28;19932;-90
2023/05/14 00:54:45;;;;;;;;;;;11.60;99.90;;;;;;5062126;28;19931;-90
2023/05/14 00:57:11;;;;;;;;;;;11.60;99.90;;;;;;5063235;28;20013;-90
2023/05/14 00:59:39;;;;;;;;;;;11.60;99.90;;;;;;5060106;28;20403;-91
2023/05/14 01:02:05;;;;;;;;;;;11.60;99.90;;;;;;5063359;28;19928;-91
2023/05/14 01:04:30;;;;;;;;;;;11.50;99.90;;;;;;5064220;28;19935;-90
2023/05/14 01:07:15;;;;;;;;;;;11.50;99.90;;;;;;5058776;28;19928;-89
2023/05/14 01:09:43;;;;;;;;;;;11.40;99.90;;;;;;5071414;28;19928;-90
2023/05/14 01:12:15;;;;;;;;;;;11.20;99.90;;;;;;5058423;28;19924;-90
2023/05/14 01:14:44;;;;;;;;;;;11.00;99.90;;;;;;5059441;28;19931;-89
2023/05/14 01:17:10;;;;;;;;;;;8.80;99.90;;;;;;5061525;28;19999;-90
2023/05/14 01:19:38;;;;;;;;;;;10.90;99.90;;;;;;5056193;28;19925;-89
2023/05/14 01:22:05;;;;;;;;;;;11.00;99.90;;;;;;5066350;28;19964;-89
2023/05/14 01:24:30;;;;;;;;;;;11.10;99.90;;;;;;5057359;28;19925;-91
2023/05/14 01:27:01;;;;;;;;;;;8.80;99.90;;;;;;5056203;28;20262;-90
2023/05/14 01:29:27;;;;;;;;;;;11.20;99.90;;;;;;5070162;28;19932;-90
2023/05/14 01:31:54;;;;;;;;;;;11.20;99.90;;;;;;5062598;28;19925;-90
2023/05/14 01:34:21;;;;;;;;;;;11.30;99.90;;;;;;5028869;28;20287;-91
2023/05/14 01:36:47;;;;;;;;;;;11.20;99.90;;;;;;5036109;28;20001;-90
2023/05/14 01:39:14;;;;;;;;;;;11.30;99.90;;;;;;5058009;28;19920;-90
2023/05/14 01:41:41;;;;;;;;;;;11.30;99.90;;;;;;5048644;28;19925;-90
2023/05/14 01:44:07;;;;;;;;;;;11.30;99.90;;;;;;5032252;28;19928;-90
2023/05/14 01:46:33;;;;;;;;;;;11.30;99.90;;;;;;5037640;28;19924;-90
2023/05/14 01:48:59;;;;;;;;;;;11.30;99.90;;;;;;5038951;28;20445;-90
2023/05/14 01:51:25;;;;;;;;;;;11.30;99.90;;;;;;5045259;28;19970;-90
2023/05/14 01:53:50;;;;;;;;;;;11.40;99.90;;;;;;5025178;28;19925;-90
2023/05/14 01:56:17;;;;;;;;;;;11.40;99.90;;;;;;5016267;28;19991;-90
2023/05/14 01:58:42;;;;;;;;;;;11.50;99.90;;;;;;5024829;28;20326;-90
2023/05/14 02:01:08;;;;;;;;;;;11.50;99.90;;;;;;5036154;28;19931;-90
2023/05/14 02:03:33;;;;;;;;;;;11.30;99.90;;;;;;5025531;28;19936;-89
2023/05/14 02:05:59;;;;;;;;;;;9.10;99.90;;;;;;5060977;28;20039;-91
2023/05/14 02:08:25;;;;;;;;;;;11.10;99.90;;;;;;5024299;28;19935;-89
2023/05/14 02:10:50;;;;;;;;;;;11.10;99.90;;;;;;5049309;28;19925;-90
2023/05/14 02:13:16;;;;;;;;;;;11.00;99.90;;;;;;5024629;28;19944;-89
2023/05/14 02:15:42;;;;;;;;;;;10.90;99.90;;;;;;5027753;28;19925;-90
2023/05/14 02:18:07;;;;;;;;;;;10.80;99.90;;;;;;5027797;28;19924;-90
2023/05/14 02:20:33;;;;;;;;;;;10.80;99.90;;;;;;5025961;28;19925;-89
2023/05/14 02:22:58;;;;;;;;;;;10.70;99.90;;;;;;5028171;28;20019;-89
2023/05/14 02:25:24;;;;;;;;;;;10.80;99.90;;;;;;5027551;28;19990;-90
2023/05/14 02:27:50;;;;;;;;;;;10.80;99.90;;;;;;5026688;28;19925;-90
2023/05/14 02:30:15;;;;;;;;;;;10.80;99.90;;;;;;5027693;28;19924;-89
2023/05/14 02:32:41;;;;;;;;;;;10.80;99.90;;;;;;5023991;28;19925;-90
2023/05/14 02:35:07;;;;;;;;;;;10.90;99.90;;;;;;5024636;28;19925;-90
2023/05/14 02:37:33;;;;;;;;;;;10.90;99.90;;;;;;5020421;28;19931;-90
2023/05/14 02:39:59;;;;;;;;;;;10.90;99.90;;;;;;5037262;28;19924;-90
2023/05/14 02:42:25;;;;;;;;;;;11.00;99.90;;;;;;5043868;28;19931;-90
2023/05/14 02:44:51;;;;;;;;;;;11.00;99.90;;;;;;5043918;28;19929;-90
2023/05/14 02:47:17;;;;;;;;;;;10.90;99.90;;;;;;5035644;28;19999;-90
2023/05/14 02:49:43;;;;;;;;;;;10.90;99.90;;;;;;5025186;28;19924;-90
2023/05/14 02:52:08;;;;;;;;;;;10.90;99.90;;;;;;5037359;28;19932;-90
2023/05/14 02:54:34;;;;;;;;;;;10.90;99.90;;;;;;5027691;28;19935;-89
2023/05/14 02:57:00;;;;;;;;;;;10.90;99.90;;;;;;5039438;28;19980;-90
2023/05/14 02:59:25;;;;;;;;;;;10.90;99.90;;;;;;5035878;28;19927;-90
2023/05/14 03:01:51;;;;;;;;;;;10.90;99.90;;;;;;5038210;28;20008;-90
2023/05/14 03:04:17;;;;;;;;;;;10.80;99.90;;;;;;5031872;28;20469;-90
2023/05/14 03:06:42;;;;;;;;;;;10.70;99.90;;;;;;5043634;28;19925;-90
2023/05/14 03:09:08;;;;;;;;;;;10.80;99.90;;;;;;5044607;28;19925;-90
2023/05/14 03:11:34;;;;;;;;;;;10.60;99.90;;;;;;5027750;28;19928;-90
2023/05/14 03:14:00;;;;;;;;;;;10.60;99.90;;;;;;5027436;28;19935;-90
2023/05/14 03:16:25;;;;;;;;;;;10.60;99.90;;;;;;5044185;28;19925;-91
2023/05/14 03:18:51;;;;;;;;;;;10.70;99.90;;;;;;5044387;28;20011;-90
2023/05/14 03:21:17;;;;;;;;;;;10.70;99.90;;;;;;5027255;28;19967;-91
2023/05/14 03:23:42;;;;;;;;;;;10.70;99.90;;;;;;5044132;28;19956;-91
2023/05/14 03:26:08;;;;;;;;;;;10.70;99.90;;;;;;5060749;28;19924;-90
2023/05/14 03:28:34;;;;;;;;;;;10.70;99.90;;;;;;5023976;28;19929;-91
2023/05/14 03:30:59;;;;;;;;;;;10.80;99.90;;;;;;5026899;28;19924;-90
2023/05/14 03:33:25;;;;;;;;;;;10.80;99.90;;;;;;5038711;28;19925;-89
2023/05/14 03:35:51;;;;;;;;;;;10.80;99.90;;;;;;5027342;28;19944;-90
2023/05/14 03:38:16;;;;;;;;;;;10.80;99.90;;;;;;5026669;28;19929;-90
2023/05/14 03:40:43;;;;;;;;;;;10.80;99.90;;;;;;5041335;28;19925;-91
2023/05/14 03:43:08;;;;;;;;;;;10.80;99.90;;;;;;5042782;28;19924;-89
2023/05/14 03:45:34;;;;;;;;;;;10.80;99.90;;;;;;5026977;28;19928;-88
2023/05/14 03:48:00;;;;;;;;;;;10.80;99.90;;;;;;5027519;28;19924;-89
2023/05/14 03:50:25;;;;;;;;;;;10.80;99.90;;;;;;5032807;28;19994;-90
2023/05/14 03:52:52;;;;;;;;;;;9.70;99.90;;;;;;5035336;28;19924;-90
2023/05/14 03:55:18;;;;;;;;;;;10.80;99.90;;;;;;5028147;28;20378;-91
2023/05/14 03:57:44;;;;;;;;;;;10.70;99.90;;;;;;5019830;28;19925;-90
2023/05/14 04:00:10;;;;;;;;;;;10.70;99.90;;;;;;5022624;28;19981;-90
2023/05/14 04:02:35;;;;;;;;;;;10.60;99.90;;;;;;5040022;28;19941;-90
2023/05/14 04:05:01;;;;;;;;;;;10.50;99.90;;;;;;5040486;28;19955;-90
2023/05/14 04:07:27;;;;;;;;;;;10.30;99.90;;;;;;5043536;28;19995;-89
2023/05/14 04:09:52;;;;;;;;;;;10.30;99.90;;;;;;5057690;28;19924;-89
2023/05/14 04:12:18;;;;;;;;;;;10.30;99.90;;;;;;5026943;28;19924;-91
2023/05/14 04:14:44;;;;;;;;;;;10.10;99.90;;;;;;5026861;28;20313;-90
2023/05/14 04:17:09;;;;;;;;;;;9.90;99.90;;;;;;5027534;28;19947;-90
2023/05/14 04:19:35;;;;;;;;;;;9.70;99.90;;;;;;5041142;28;19939;-89
2023/05/14 04:22:01;;;;;;;;;;;9.60;99.90;;;;;;5055464;28;19921;-90
2023/05/14 04:24:27;;;;;;;;;;;9.60;99.90;;;;;;5043148;28;19992;-89
2023/05/14 04:26:53;;;;;;;;;;;9.60;99.90;;;;;;5040451;28;19924;-90
2023/05/14 04:29:19;;;;;;;;;;;9.70;99.90;;;;;;5034094;28;19967;-89
2023/05/14 04:31:45;;;;;;;;;;;9.70;99.90;;;;;;5031876;28;20466;-89
2023/05/14 04:34:11;;;;;;;;;;;9.80;99.90;;;;;;5021017;28;19931;-89
2023/05/14 04:36:36;;;;;;;;;;;9.90;99.90;;;;;;5062964;28;19929;-90
2023/05/14 04:39:02;;;;;;;;;;;10.00;99.90;;;;;;5030309;28;19925;-89
2023/05/14 04:41:28;;;;;;;;;;;10.00;99.90;;;;;;5043732;28;19924;-90
2023/05/14 04:43:57;;;;;;;;;;;10.10;99.90;;;;;;5038897;28;19944;-89
2023/05/14 04:46:23;;;;;;;;;;;10.10;99.90;;;;;;5041820;28;19960;-90
2023/05/14 04:48:50;;;;;;;;;;;10.10;99.90;;;;;;5026182;28;19925;-91
2023/05/14 04:51:16;;;;;;;;;;;10.20;99.90;;;;;;5030256;28;20028;-90
2023/05/14 04:53:41;;;;;;;;;;;10.30;99.90;;;;;;5042796;28;19925;-90
2023/05/14 04:56:07;;;;;;;;;;;10.30;99.90;;;;;;5025526;28;20013;-90
2023/05/14 04:58:33;;;;;;;;;;;10.30;99.90;;;;;;5029811;28;19959;-90
2023/05/14 05:00:58;;;;;;;;;;;10.40;99.90;;;;;;5030113;28;20019;-92
2023/05/14 05:03:24;;;;;;;;;;;10.50;99.90;;;;;;5029624;28;19924;-90
2023/05/14 05:05:50;;;;;;;;;;;10.50;99.90;;;;;;5062845;28;20268;-89
2023/05/14 05:08:16;;;;;;;;;;;10.60;99.90;;;;;;5050144;28;19971;-92
2023/05/14 05:10:42;;;;;;;;;;;10.60;99.90;;;;;;5033715;28;20350;-90
2023/05/14 05:13:07;;;;;;;;;;;10.70;99.90;;;;;;5027528;28;20023;-90
2023/05/14 05:15:33;;;;;;;;;;;10.80;99.90;;;;;;5028411;28;19924;-91
2023/05/14 05:17:59;;;;;;;;;;;10.90;99.90;;;;;;5041716;28;20004;-89
2023/05/14 05:20:26;;;;;;;;;;;10.90;99.90;;;;;;5045981;28;19936;-90
2023/05/14 05:22:52;;;;;;;;;;;11.00;99.90;;;;;;5030680;28;20256;-90
2023/05/14 05:25:18;;;;;;;;;;;11.10;99.90;;;;;;5042570;28;19925;-91
2023/05/14 05:27:44;;;;;;;;;;;11.10;99.90;;;;;;5041238;28;19924;-92
2023/05/14 05:30:10;;;;;;;;;;;11.30;99.90;;;;;;5046027;28;19932;-90
2023/05/14 05:32:36;;;;;;;;;;;11.40;99.90;;;;;;5028994;28;19939;-91
2023/05/14 05:35:02;;;;;;;;;;;11.50;99.90;;;;;;5044847;28;19924;-91
2023/05/14 05:37:27;;;;;;;;;;;11.70;99.90;;;;;;5045791;28;19991;-90
2023/05/14 05:39:53;;;;;;;;;;;11.80;99.90;;;;;;5030011;28;19925;-91
2023/05/14 05:42:18;;;;;;;;;;;11.90;99.90;;;;;;5040532;28;19946;-89
2023/05/14 05:44:44;;;;;;;;;;;12.00;99.90;;;;;;5061001;28;19963;-92
2023/05/14 05:47:10;;;;;;;;;;;12.20;99.90;;;;;;5079215;28;19924;-91
2023/05/14 05:49:36;;;;;;;;;;;12.30;99.90;;;;;;5046052;28;19946;-91
2023/05/14 05:52:02;;;;;;;;;;;12.40;99.90;;;;;;5034577;28;19956;-91
2023/05/14 05:54:31;;;;;;;;;;;12.50;99.90;;;;;;5039802;28;20386;-91
2023/05/14 05:56:56;;;;;;;;;;;12.70;99.90;;;;;;5057502;28;20253;-91
2023/05/14 05:59:23;;;;;;;;;;;12.90;99.90;;;;;;5042224;28;19979;-90
2023/05/14 06:01:49;;;;;;;;;;;12.90;99.90;;;;;;5037236;28;19924;-92
2023/05/14 06:04:14;;;;;;;;;;;12.90;99.90;;;;;;5027806;28;19947;-91
2023/05/14 06:06:40;;;;;;;;;;;13.00;99.90;;;;;;5041988;28;19992;-91
2023/05/14 06:09:07;;;;;;;;;;;13.10;99.90;;;;;;5039915;28;19929;-91
2023/05/14 06:11:33;;;;;;;;;;;13.20;99.90;;;;;;5033881;28;19925;-91
2023/05/14 06:13:59;;;;;;;;;;;13.30;99.90;;;;;;5044445;28;20460;-91
2023/05/14 06:16:24;;;;;;;;;;;13.30;99.90;;;;;;5050176;28;19980;-92
2023/05/14 06:18:51;;;;;;;;;;;13.40;99.90;;;;;;5027889;28;20031;-91
2023/05/14 06:21:17;;;;;;;;;;;13.50;99.90;;;;;;5025866;28;19937;-90
2023/05/14 06:23:43;;;;;;;;;;;17.20;99.90;;;;;;5025131;28;19971;-92
2023/05/14 06:26:09;;;;;;;;;;;13.60;99.90;;;;;;5033453;28;19925;-92
2023/05/14 06:28:34;;;;;;;;;;;13.70;99.90;;;;;;5024739;28;19936;-91
2023/05/14 06:31:00;;;;;;;;;;;13.70;99.90;;;;;;5045293;28;19995;-91
2023/05/14 06:33:31;;;;;;;;;;;13.80;99.90;;;;;;5028270;28;22756;-91
2023/05/14 06:36:01;;;;;;;;;;;12.00;99.90;;;;;;5028502;28;19928;-90
2023/05/14 06:38:27;;;;;;;;;;;13.90;99.90;;;;;;5044529;28;19928;-91
2023/05/14 06:40:52;;;;;;;;;;;14.00;99.90;;;;;;5028343;28;19939;-92
2023/05/14 06:43:18;;;;;;;;;;;14.10;99.90;;;;;;5042918;28;19935;-92
2023/05/14 06:45:47;;;;;;;;;;;14.10;99.90;;;;;;5065860;28;20035;-91
2023/05/14 06:48:12;;;;;;;;;;;14.10;99.90;;;;;;5048600;28;19931;-91
2023/05/14 06:50:39;;;;;;;;;;;14.20;99.90;;;;;;5028044;28;19924;-91
2023/05/14 06:53:04;;;;;;;;;;;14.10;99.90;;;;;;5024263;28;19925;-92
2023/05/14 06:55:31;;;;;;;;;;;14.20;99.90;;;;;;5024818;28;20033;-92
2023/05/14 06:57:57;;;;;;;;;;;14.20;99.90;;;;;;5027776;28;19980;-92
2023/05/14 07:00:23;;;;;;;;;;;14.20;99.90;;;;;;5036003;28;20056;-91
2023/05/14 07:02:48;;;;;;;;;;;14.30;99.90;;;;;;5026171;28;19963;-92
2023/05/14 07:05:14;;;;;;;;;;;14.30;99.90;;;;;;5041241;28;19984;-91
2023/05/14 07:07:40;;;;;;;;;;;14.40;99.90;;;;;;5036869;28;19975;-92
2023/05/14 07:10:06;;;;;;;;;;;14.50;99.90;;;;;;5020461;28;19963;-91
2023/05/14 07:12:32;;;;;;;;;;;14.60;99.90;;;;;;5028365;28;19925;-91
2023/05/14 07:14:58;;;;;;;;;;;14.60;99.90;;;;;;5028086;28;20646;-92
2023/05/14 07:17:24;;;;;;;;;;;14.70;99.90;;;;;;5044611;28;19924;-91
2023/05/14 07:19:50;;;;;;;;;;;14.70;99.90;;;;;;5015537;28;19956;-91
2023/05/14 07:22:15;;;;;;;;;;;14.80;99.90;;;;;;5018066;28;19931;-91
2023/05/14 07:24:41;;;;;;;;;;;15.60;99.90;;;;;;5027855;28;19925;-92
2023/05/14 07:27:07;;;;;;;;;;;14.90;99.90;;;;;;5027928;28;19924;-91
2023/05/14 07:29:33;;;;;;;;;;;15.00;99.90;;;;;;5024120;28;19993;-91
2023/05/14 07:31:59;;;;;;;;;;;15.10;99.90;;;;;;5027967;28;19924;-91
2023/05/14 07:34:25;;;;;;;;;;;13.20;99.90;;;;;;5026720;28;20489;-91
2023/05/14 07:36:51;;;;;;;;;;;15.00;99.90;;;;;;5047875;28;19932;-91
2023/05/14 07:39:17;;;;;;;;;;;15.10;99.90;;;;;;5038035;28;20372;-93
2023/05/14 07:41:42;;;;;;;;;;;15.20;99.90;;;;;;5029038;28;19971;-91
2023/05/14 07:44:08;;;;;;;;;;;15.20;99.90;;;;;;5027257;28;19924;-93
2023/05/14 07:46:33;;;;;;;;;;;15.20;99.90;;;;;;5029264;28;20063;-91
2023/05/14 07:48:59;;;;;;;;;;;15.30;99.90;;;;;;5043020;28;19944;-91
2023/05/14 07:51:27;;;;;;;;;;;15.30;99.90;;;;;;5043997;28;19930;-92
2023/05/14 07:53:54;;;;;;;;;;;15.40;99.90;;;;;;5027850;28;20034;-90
2023/05/14 07:56:21;;;;;;;;;;;15.50;99.90;;;;;;5030826;28;19924;-91
2023/05/14 07:58:46;;;;;;;;;;;15.40;99.90;;;;;;5031093;28;20360;-90
2023/05/14 08:01:12;;;;;;;;;;;15.50;99.90;;;;;;5046452;28;19925;-90
2023/05/14 08:03:38;;;;;;;;;;;15.60;99.90;;;;;;5047081;28;19926;-90
2023/05/14 08:06:04;;;;;;;;;;;15.60;99.90;;;;;;5060138;28;19974;-90
2023/05/14 08:08:29;;;;;;;;;;;15.70;99.90;;;;;;5030746;28;19982;-91
2023/05/14 08:10:55;;;;;;;;;;;15.70;99.90;;;;;;5029527;28;19936;-90
2023/05/14 08:13:21;;;;;;;;;;;15.80;99.90;;;;;;5039153;28;19987;-91
2023/05/14 08:15:46;;;;;;;;;;;15.80;99.90;;;;;;5028228;28;19965;-90
2023/05/14 08:18:12;;;;;;;;;;;15.90;99.90;;;;;;5028484;28;19928;-91
2023/05/14 08:20:38;;;;;;;;;;;16.00;99.90;;;;;;5023601;28;19951;-91
2023/05/14 08:23:03;;;;;;;;;;;16.10;99.90;;;;;;5030975;28;20408;-93
2023/05/14 08:25:29;;;;;;;;;;;16.20;99.90;;;;;;5037602;28;19947;-90
2023/05/14 08:27:55;;;;;;;;;;;16.20;99.90;;;;;;5042277;28;19951;-90
2023/05/14 08:30:21;;;;;;;;;;;16.10;99.90;;;;;;5041526;28;19947;-91
2023/05/14 08:32:47;;;;;;;;;;;16.10;99.90;;;;;;5055631;28;19992;-91
2023/05/14 08:35:12;;;;;;;;;;;16.10;99.90;;;;;;5028309;28;20011;-90
2023/05/14 08:37:38;;;;;;;;;;;16.10;99.90;;;;;;5047523;28;19999;-90
2023/05/14 08:40:04;;;;;;;;;;;16.20;99.90;;;;;;5045514;28;20332;-91
2023/05/14 08:42:30;;;;;;;;;;;16.30;99.90;;;;;;5032935;28;19931;-90
2023/05/14 08:45:00;;;;;;;;;;;16.40;99.90;;;;;;5030332;28;20014;-91
2023/05/14 08:47:27;;;;;;;;;;;16.40;99.90;;;;;;5041532;28;19959;-91
2023/05/14 08:50:03;;;;;;;;;;;16.50;99.90;;;;;;5045676;28;19929;-91
2023/05/14 08:52:29;;;;;;;;;;;16.60;99.90;;;;;;5058187;28;19929;-91
2023/05/14 08:54:56;;;;;;;;;;;16.60;99.90;;;;;;5039447;28;19925;-91
2023/05/14 08:57:23;;;;;;;;;;;16.50;99.90;;;;;;5046510;28;19925;-91
2023/05/14 08:59:49;;;;;;;;;;;16.50;99.90;;;;;;5044550;28;20014;-91
2023/05/14 09:02:16;;;;;;;;;;;16.60;99.90;;;;;;5046838;28;19993;-92
2023/05/14 09:04:42;;;;;;;;;;;15.70;99.90;;;;;;5045329;28;19929;-91
2023/05/14 09:07:07;;;;;;;;;;;16.60;99.90;;;;;;5027915;28;19964;-90
2023/05/14 09:09:33;;;;;;;;;;;16.60;99.90;;;;;;5029694;28;19928;-90
2023/05/14 09:11:59;;;;;;;;;;;16.80;99.90;;;;;;5044610;28;19987;-92
2023/05/14 09:14:25;;;;;;;;;;;16.80;99.90;;;;;;5045580;28;19931;-90
2023/05/14 09:16:51;;;;;;;;;;;17.00;99.90;;;;;;5040378;28;19964;-91
2023/05/14 09:19:20;;;;;;;;;;;17.20;99.90;;;;;;5038471;28;19939;-91
2023/05/14 09:21:47;;;;;;;;;;;17.30;99.90;;;;;;5030845;28;20025;-91
2023/05/14 09:24:23;;;;;;;;;;;17.40;99.90;;;;;;5043592;28;19933;-90
2023/05/14 09:26:50;;;;;;;;;;;17.40;99.90;;;;;;5063224;28;19930;-90
2023/05/14 09:29:16;;;;;;;;;;;14.80;99.90;;;;;;5040377;28;19924;-91
2023/05/14 09:31:41;;;;;;;;;;;17.40;99.90;;;;;;5034646;28;19924;-91
2023/05/14 09:34:07;;;;;;;;;;;17.50;99.90;;;;;;5026156;28;19967;-91
2023/05/14 09:36:33;;;;;;;;;;;17.60;99.90;;;;;;5029630;28;19944;-91
2023/05/14 09:38:59;;;;;;;;;;;17.60;99.90;;;;;;5045311;28;19925;-90
2023/05/14 09:41:25;;;;;;;;;;;17.70;99.90;;;;;;5046218;28;19924;-90
2023/05/14 09:43:50;;;;;;;;;;;17.80;99.90;;;;;;5045474;28;19925;-89
2023/05/14 09:46:16;;;;;;;;;;;17.80;99.90;;;;;;5034506;28;19928;-89
2023/05/14 09:48:42;;;;;;;;;;;17.80;99.90;;;;;;5072251;28;19924;-90
2023/05/14 09:51:12;;;;;;;;;;;17.90;99.90;;;;;;5051106;28;19944;-90
2023/05/14 09:53:38;;;;;;;;;;;17.90;99.90;;;;;;5039595;28;19939;-89
2023/05/14 09:56:04;;;;;;;;;;;18.00;99.90;;;;;;5044110;28;19936;-91
2023/05/14 09:58:30;;;;;;;;;;;18.10;99.90;;;;;;5044404;28;19924;-90
2023/05/14 10:00:56;;;;;;;;;;;18.20;99.90;;;;;;5025888;28;19960;-90
2023/05/14 10:03:23;;;;;;;;;;;18.30;99.90;;;;;;5042854;28;19939;-90
2023/05/14 10:05:50;;;;;;;;;;;18.50;99.90;;;;;;5040844;28;19935;-90
2023/05/14 10:08:23;;;;;;;;;;;18.50;99.90;;;;;;5043478;28;19929;-90
2023/05/14 10:10:50;;;;;;;;;;;18.60;99.90;;;;;;5041314;28;19931;-89
2023/05/14 10:13:19;;;;;;;;;;;18.70;99.90;;;;;;5038739;28;19928;-91
2023/05/14 10:15:50;;;;;;;;;;;18.90;99.90;;;;;;5056603;28;20311;-91
2023/05/14 10:18:21;;;;;;;;;;;19.10;99.90;;;;;;5039511;28;19929;-89
2023/05/14 10:20:52;;;;;;;;;;;19.20;99.90;;;;;;5041557;28;20011;-91
2023/05/14 10:23:17;;;;;;;;;;;19.20;99.90;;;;;;5058677;28;19924;-90
2023/05/14 10:25:43;;;;;;;;;;;19.10;99.90;;;;;;5020045;28;19936;-89
2023/05/14 10:28:10;;;;;;;;;;;19.20;99.90;;;;;;5044303;28;19925;-90
2023/05/14 10:30:42;;;;;;;;;;;19.20;99.90;;;;;;5041109;28;19924;-92
2023/05/14 10:33:10;;;;;;;;;;;19.30;99.90;;;;;;5051075;28;19956;-92
2023/05/14 10:36:05;;;;;;;;;;;19.40;99.90;;;;;;5034612;28;19932;-91
2023/05/14 10:38:32;;;;;;;;;;;19.40;99.90;;;;;;5025978;28;19986;-94
2023/05/14 10:40:59;;;;;;;;;;;19.40;99.90;;;;;;5017614;28;20411;-91
2023/05/14 10:43:26;;;;;;;;;;;19.40;99.90;;;;;;5035746;28;20019;-91
2023/05/14 10:45:52;;;;;;;;;;;19.40;99.90;;;;;;5040341;28;20011;-91
2023/05/14 10:48:18;;;;;;;;;;;20.40;99.90;;;;;;5027946;28;20348;-90
2023/05/14 10:50:46;;;;;;;;;;;19.50;99.90;;;;;;5025916;28;20629;-91
2023/05/14 10:53:12;;;;;;;;;;;19.40;99.90;;;;;;5048848;28;20011;-94
2023/05/14 10:55:39;;;;;;;;;;;19.50;99.90;;;;;;5037094;28;19998;-93
2023/05/14 10:58:06;;;;;;;;;;;19.60;99.90;;;;;;5057700;28;19935;-92
2023/05/14 11:00:34;;;;;;;;;;;19.60;99.90;;;;;;5042733;28;19924;-92
2023/05/14 11:03:02;;;;;;;;;;;19.70;99.90;;;;;;5038471;28;19951;-93
2023/05/14 11:05:28;;;;;;;;;;;19.80;99.90;;;;;;5033332;28;20439;-93
2023/05/14 11:07:55;;;;;;;;;;;19.80;99.90;;;;;;5034110;28;20000;-91
2023/05/14 11:10:22;;;;;;;;;;;20.00;99.90;;;;;;5039131;28;19921;-92
2023/05/14 11:12:49;;;;;;;;;;;20.20;99.90;;;;;;5036094;28;20241;-93
2023/05/14 11:15:16;;;;;;;;;;;20.30;99.90;;;;;;5045094;28;19925;-91
2023/05/14 11:17:43;;;;;;;;;;;20.40;99.90;;;;;;5044753;28;19964;-92
2023/05/14 11:20:09;;;;;;;;;;;20.50;99.90;;;;;;5016752;28;19939;-92
2023/05/14 11:22:35;;;;;;;;;;;20.50;99.90;;;;;;5028601;28;19925;-92
2023/05/14 11:25:01;;;;;;;;;;;20.60;99.90;;;;;;5026248;28;19975;-91
2023/05/14 11:27:27;;;;;;;;;;;20.70;99.90;;;;;;5030887;28;19924;-92
2023/05/14 11:29:54;;;;;;;;;;;20.90;99.90;;;;;;5026734;28;19932;-92
2023/05/14 11:32:23;;;;;;;;;;;21.00;99.90;;;;;;5051953;28;19946;-92
2023/05/14 11:34:49;;;;;;;;;;;21.00;99.90;;;;;;5031573;28;19980;-92
2023/05/14 11:37:15;;;;;;;;;;;21.00;99.90;;;;;;5024414;28;19931;-93
2023/05/14 11:39:51;;;;;;;;;;;21.00;99.90;;;;;;5050565;28;19924;-91
2023/05/14 11:42:18;;;;;;;;;;;21.00;99.90;;;;;;5050470;28;19928;-91
2023/05/14 11:44:47;;;;;;;;;;;20.90;99.90;;;;;;5034673;28;19924;-91
2023/05/14 11:47:14;;;;;;;;;;;20.90;99.90;;;;;;5032638;28;19999;-92
2023/05/14 11:49:39;;;;;;;;;;;20.80;97.20;;;;;;5050420;28;19925;-92
2023/05/14 11:52:06;;;;;;;;;;;18.40;98.90;;;;;;5041152;28;20297;-92
2023/05/14 11:54:32;;;;;;;;;;;20.80;99.90;;;;;;5065253;28;19925;-92
2023/05/14 11:57:00;;;;;;;;;;;20.80;99.90;;;;;;5047179;28;20003;-91
2023/05/14 11:59:26;;;;;;;;;;;20.80;95.10;;;;;;5050953;28;19946;-91
2023/05/14 12:01:53;;;;;;;;;;;20.90;99.70;;;;;;5047565;28;19925;-92
2023/05/14 12:04:21;;;;;;;;;;;21.00;99.60;;;;;;5035593;28;20546;-91
2023/05/14 12:06:48;;;;;;;;;;;21.20;99.90;;;;;;5033002;28;20278;-89
2023/05/14 12:09:15;;;;;;;;;;;21.30;99.60;;;;;;5029956;28;19925;-90
2023/05/14 12:11:40;;;;;;;;;;;21.40;98.90;;;;;;5048498;28;19939;-91
2023/05/14 12:14:11;;;;;;;;;;;21.60;99.90;;;;;;5032049;28;19928;-90
2023/05/14 12:16:38;;;;;;;;;;;21.70;96.10;;;;;;5041368;28;19929;-90
2023/05/14 12:19:04;;;;;;;;;;;21.80;93.60;;;;;;5044679;28;20607;-93
2023/05/14 12:21:30;;;;;;;;;;;21.90;88.10;;;;;;5027067;28;19932;-93
2023/05/14 12:23:59;;;;;;;;;;;21.80;81.00;;;;;;5026953;28;19937;-91
2023/05/14 12:26:28;;;;;;;;;;;21.80;84.30;;;;;;5030975;28;19986;-92
2023/05/14 12:29:00;;;;;;;;;;;21.80;85.50;;;;;;5050090;28;20414;-91
2023/05/14 12:31:29;;;;;;;;;;;21.70;85.00;;;;;;5043494;28;19932;-92
2023/05/14 12:34:03;;;;;;;;;;;21.70;87.20;;;;;;5068004;28;19935;-91
2023/05/14 12:36:31;;;;;;;;;;;21.80;80.70;;;;;;5044438;28;19924;-92
2023/05/14 12:38:59;;;;;;;;;;;21.80;84.00;;;;;;5045519;28;19995;-94
2023/05/14 12:41:25;;;;;;;;;;;21.80;85.10;;;;;;5051609;28;20399;-95
2023/05/14 12:43:50;;;;;;;;;;;21.90;81.20;;;;;;5030000;28;19924;-95
2023/05/14 12:46:16;;;;;;;;;;;21.10;82.10;;;;;;5033668;28;19932;-95
2023/05/14 12:48:42;;;;;;;;;;;21.80;82.00;;;;;;5038185;28;19932;-93
2023/05/14 12:51:07;;;;;;;;;;;21.80;73.60;;;;;;5036111;28;19925;-92
2023/05/14 12:53:34;;;;;;;;;;;21.80;77.00;;;;;;5034306;28;19946;-95
2023/05/14 12:55:59;;;;;;;;;;;21.80;77.90;;;;;;5051106;28;20458;-94
2023/05/14 12:58:25;;;;;;;;;;;21.80;77.90;;;;;;5032720;28;19932;-93
2023/05/14 13:00:51;;;;;;;;;;;21.90;78.50;;;;;;5062730;28;19994;-93
2023/05/14 13:03:17;;;;;;;;;;;21.90;75.70;;;;;;5033842;28;19929;-93
2023/05/14 13:05:43;;;;;;;;;;;21.90;73.80;;;;;;5034354;28;19924;-93
2023/05/14 13:08:09;;;;;;;;;;;22.00;77.80;;;;;;5045705;28;19944;-93
2023/05/14 13:10:35;;;;;;;;;;;22.00;79.00;;;;;;5063163;28;20018;-95
2023/05/14 13:13:01;;;;;;;;;;;22.00;77.80;;;;;;5038224;28;19983;-94
2023/05/14 13:15:27;;;;;;;;;;;22.00;66.90;;;;;;5046022;28;19935;-96
2023/05/14 13:17:52;;;;;;;;;;;22.00;66.10;;;;;;5045196;28;19925;-94
2023/05/14 13:20:22;;;;;;;;;;;22.00;72.50;;;;;;5041308;28;19987;-93
2023/05/14 13:22:48;;;;;;;;;;;22.10;70.40;;;;;;5037866;28;19925;-94
2023/05/14 13:25:13;;;;;;;;;;;22.10;71.60;;;;;;5037142;28;19980;-94
2023/05/14 13:27:39;;;;;;;;;;;22.20;73.50;;;;;;5025104;28;19928;-91
2023/05/14 13:30:05;;;;;;;;;;;22.20;71.30;;;;;;5028010;28;19924;-91
2023/05/14 13:32:31;;;;;;;;;;;22.20;72.10;;;;;;5044062;28;19988;-93
2023/05/14 13:34:56;;;;;;;;;;;22.30;70.90;;;;;;5041141;28;20482;-91
2023/05/14 13:37:23;;;;;;;;;;;23.60;73.10;;;;;;5028004;28;19924;-93
2023/05/14 13:39:48;;;;;;;;;;;22.40;70.60;;;;;;5028278;28;19924;-92
2023/05/14 13:42:14;;;;;;;;;;;22.40;70.20;;;;;;5028793;28;19936;-92
2023/05/14 13:44:40;;;;;;;;;;;22.50;66.60;;;;;;5027603;28;19992;-93
2023/05/14 13:47:05;;;;;;;;;;;22.50;66.40;;;;;;5028377;28;19925;-93
2023/05/14 13:49:31;;;;;;;;;;;22.40;67.20;;;;;;5040750;28;19920;-91
2023/05/14 13:51:57;;;;;;;;;;;22.50;67.30;;;;;;5038539;28;19925;-91
2023/05/14 13:54:22;;;;;;;;;;;22.60;65.80;;;;;;5049064;28;19963;-91
2023/05/14 13:56:48;;;;;;;;;;;22.50;66.90;;;;;;5038560;28;19956;-92
2023/05/14 13:59:14;;;;;;;;;;;22.50;67.10;;;;;;5026219;28;19964;-94
2023/05/14 14:01:42;;;;;;;;;;;22.50;68.00;;;;;;5026342;28;19932;-93
2023/05/14 14:04:08;;;;;;;;;;;22.30;66.50;;;;;;5043487;28;19950;-93
2023/05/14 14:06:34;;;;;;;;;;;22.30;67.90;;;;;;5042812;28;19929;-93
2023/05/14 14:08:59;;;;;;;;;;;22.30;69.70;;;;;;5044002;28;20033;-90
2023/05/14 14:11:25;;;;;;;;;;;22.30;68.90;;;;;;5028891;28;20380;-91
2023/05/14 14:13:51;;;;;;;;;;;22.40;69.10;;;;;;5030802;28;20269;-92